createdAt,value
2019-05-13T00:01:49.359Z,3.13
2019-05-13T00:04:19.897Z,3.13
2019-05-13T00:06:54.175Z,3.40
2019-05-13T00:09:24.311Z,3.13
2019-05-13T00:11:55.422Z,3.43
2019-05-13T00:14:25.616Z,3.30
2019-05-13T00:16:55.777Z,3.43
2019-05-13T00:19:26.051Z,3.20
2019-05-13T00:21:56.217Z,3.30
2019-05-13T00:24:26.424Z,3.17
2019-05-13T00:26:56.969Z,3.20
2019-05-13T00:29:27.522Z,4.07
2019-05-13T00:31:57.623Z,3.50
2019-05-13T00:34:27.861Z,3.30
2019-05-13T00:37:07.890Z,3.50
2019-05-13T00:39:30.300Z,2.50
2019-05-13T00:42:00.449Z,3.17
2019-05-13T00:44:30.672Z,3.63
2019-05-13T00:47:00.844Z,3.07
2019-05-13T00:49:31.032Z,2.90
2019-05-13T00:52:03.716Z,3.33
2019-05-13T00:54:34.259Z,3.00
2019-05-13T00:57:06.081Z,2.90
2019-05-13T00:59:37.029Z,2.70
2019-05-13T01:02:07.191Z,2.73
2019-05-13T01:04:37.713Z,2.97
2019-05-13T01:07:22.867Z,2.93
2019-05-13T01:09:41.086Z,3.03
2019-05-13T01:12:13.292Z,3.10
2019-05-13T01:14:43.704Z,3.30
2019-05-13T01:17:14.261Z,3.23
2019-05-13T01:19:44.826Z,2.97
2019-05-13T01:22:16.152Z,3.33
2019-05-13T01:24:46.678Z,2.80
2019-05-13T01:27:16.896Z,3.17
2019-05-13T01:29:47.040Z,3.23
2019-05-13T01:32:17.580Z,3.27
2019-05-13T01:34:48.111Z,3.33
2019-05-13T01:37:18.275Z,3.27
2019-05-13T01:39:48.886Z,3.43
2019-05-13T01:42:19.117Z,3.27
2019-05-13T01:44:49.305Z,3.10
2019-05-13T01:47:19.759Z,2.93
2019-05-13T01:49:49.926Z,3.10
2019-05-13T01:52:20.174Z,3.00
2019-05-13T01:54:50.501Z,2.97
2019-05-13T01:57:20.677Z,3.10
2019-05-13T01:59:53.634Z,3.00
2019-05-13T02:02:24.222Z,3.30
2019-05-13T02:04:54.612Z,2.90
2019-05-13T02:07:25.132Z,3.30
2019-05-13T02:09:55.714Z,3.13
2019-05-13T02:12:26.171Z,2.90
2019-05-13T02:14:56.378Z,3.00
2019-05-13T02:17:26.844Z,3.43
2019-05-13T02:19:57.108Z,3.03
2019-05-13T02:22:27.591Z,3.30
2019-05-13T02:24:58.112Z,3.07
2019-05-13T02:27:28.235Z,2.83
2019-05-13T02:29:58.769Z,3.10
2019-05-13T02:32:32.672Z,2.80
2019-05-13T02:35:02.902Z,2.90
2019-05-13T02:37:34.504Z,3.17
2019-05-13T02:40:05.367Z,3.37
2019-05-13T02:42:35.543Z,2.87
2019-05-13T02:45:06.272Z,3.07
2019-05-13T02:47:36.423Z,2.87
2019-05-13T02:50:07.396Z,3.03
2019-05-13T02:52:37.570Z,3.00
2019-05-13T02:55:08.509Z,3.33
2019-05-13T02:57:38.693Z,2.63
2019-05-13T03:00:12.886Z,3.40
2019-05-13T03:02:43.936Z,2.60
2019-05-13T03:05:14.828Z,3.10
2019-05-13T03:07:44.999Z,2.87
2019-05-13T03:10:15.206Z,2.90
2019-05-13T03:12:45.659Z,2.87
2019-05-13T03:15:16.367Z,3.17
2019-05-13T03:18:04.151Z,3.10
2019-05-13T03:20:35.726Z,2.77
2019-05-13T03:23:06.247Z,3.33
2019-05-13T03:25:36.883Z,3.00
2019-05-13T03:28:07.110Z,2.73
2019-05-13T03:30:37.307Z,3.30
2019-05-13T03:33:11.194Z,4.47
2019-05-13T03:35:44.656Z,2.90
2019-05-13T03:38:12.739Z,2.77
2019-05-13T03:40:45.669Z,3.30
2019-05-13T03:43:16.724Z,3.03
2019-05-13T03:45:48.432Z,3.13
2019-05-13T03:48:23.605Z,2.90
2019-05-13T03:50:54.515Z,2.93
2019-05-13T03:53:24.690Z,2.80
2019-05-13T03:55:55.167Z,3.07
2019-05-13T03:58:25.611Z,2.57
2019-05-13T04:00:56.050Z,3.37
2019-05-13T04:03:26.515Z,3.03
2019-05-13T04:05:57.796Z,3.00
2019-05-13T04:08:28.425Z,3.27
2019-05-13T04:10:58.961Z,3.40
2019-05-13T04:13:29.561Z,3.33
2019-05-13T04:16:04.049Z,3.43
2019-05-13T04:18:33.235Z,3.53
2019-05-13T04:21:03.452Z,3.47
2019-05-13T04:23:33.985Z,3.77
2019-05-13T04:26:04.172Z,3.50
2019-05-13T04:28:34.273Z,3.30
2019-05-13T04:31:04.884Z,3.53
2019-05-13T04:33:35.094Z,3.63
2019-05-13T04:36:05.296Z,3.50
2019-05-13T04:38:35.512Z,3.30
2019-05-13T04:41:06.653Z,3.63
2019-05-13T04:43:37.212Z,3.73
2019-05-13T04:46:07.630Z,3.20
2019-05-13T04:48:40.511Z,3.30
2019-05-13T04:51:13.698Z,3.13
2019-05-13T04:53:42.834Z,3.53
2019-05-13T04:56:13.961Z,3.13
2019-05-13T04:58:44.738Z,3.30
2019-05-13T05:01:58.907Z,3.17
2019-05-13T05:04:43.657Z,3.70
2019-05-13T05:07:47.205Z,3.13
2019-05-13T05:10:42.962Z,3.30
2019-05-13T05:13:52.156Z,3.40
2019-05-13T05:17:07.747Z,4.20
2019-05-13T05:20:03.702Z,2.90
2019-05-13T05:22:48.125Z,3.90
2019-05-13T05:25:47.115Z,4.60
2019-05-13T05:28:33.505Z,3.90
2019-05-13T05:31:35.489Z,3.73
2019-05-13T05:34:35.699Z,4.40
2019-05-13T05:37:22.439Z,3.63
2019-05-13T05:39:56.037Z,4.40
2019-05-13T05:42:27.625Z,3.33
2019-05-13T05:45:02.807Z,3.77
2019-05-13T05:47:34.293Z,3.93
2019-05-13T05:50:04.715Z,3.90
2019-05-13T05:52:35.849Z,3.80
2019-05-13T05:55:08.042Z,3.00
2019-05-13T05:57:42.289Z,2.77
2019-05-13T06:00:13.119Z,3.53
2019-05-13T06:02:46.054Z,3.80
2019-05-13T06:05:16.433Z,2.70
2019-05-13T06:07:46.831Z,3.00
2019-05-13T06:10:16.983Z,3.00
2019-05-13T06:12:47.604Z,2.80
2019-05-13T06:15:18.793Z,3.07
2019-05-13T06:17:49.042Z,2.70
2019-05-13T06:20:21.018Z,3.47
2019-05-13T06:22:51.650Z,3.10
2019-05-13T06:25:23.265Z,2.90
2019-05-13T06:27:54.415Z,3.40
2019-05-13T06:30:25.579Z,3.40
2019-05-13T06:32:56.190Z,3.40
2019-05-13T06:35:26.359Z,4.63
2019-05-13T06:37:56.942Z,5.70
2019-05-13T06:40:27.205Z,4.60
2019-05-13T06:42:57.393Z,3.30
2019-05-13T06:45:27.919Z,3.50
2019-05-13T06:47:58.105Z,3.00
2019-05-13T06:50:28.282Z,3.70
2019-05-13T06:52:58.384Z,3.00
2019-05-13T06:55:28.533Z,2.37
2019-05-13T06:57:59.131Z,2.80
2019-05-13T07:00:34.164Z,2.63
2019-05-13T07:03:02.306Z,2.40
2019-05-13T07:05:32.737Z,3.13
2019-05-13T07:08:03.257Z,3.73
2019-05-13T07:10:33.749Z,2.87
2019-05-13T07:13:05.043Z,2.50
2019-05-13T07:15:35.438Z,2.33
2019-05-13T07:18:05.717Z,2.67
2019-05-13T07:20:36.275Z,2.77
2019-05-13T07:23:06.586Z,2.60
2019-05-13T07:25:36.984Z,3.47
2019-05-13T07:28:07.367Z,3.17
2019-05-13T07:30:42.386Z,2.87
2019-05-13T07:33:14.101Z,3.50
2019-05-13T07:35:45.840Z,3.20
2019-05-13T07:38:17.541Z,2.47
2019-05-13T07:40:52.007Z,4.13
2019-05-13T07:43:22.085Z,2.60
2019-05-13T07:45:53.120Z,2.70
2019-05-13T07:48:27.502Z,2.70
2019-05-13T07:51:00.163Z,2.87
2019-05-13T07:53:27.597Z,2.43
2019-05-13T07:55:57.841Z,2.27
2019-05-13T07:58:27.985Z,2.10
2019-05-13T08:00:58.193Z,2.60
2019-05-13T08:03:28.383Z,3.03
2019-05-13T08:05:58.783Z,3.00
2019-05-13T08:08:29.447Z,3.37
2019-05-13T08:11:01.232Z,2.40
2019-05-13T08:13:31.970Z,3.20
2019-05-13T08:16:02.517Z,2.30
2019-05-13T08:18:33.217Z,2.70
2019-05-13T08:21:03.876Z,2.20
2019-05-13T08:23:34.123Z,2.50
2019-05-13T08:26:04.324Z,2.33
2019-05-13T08:28:34.531Z,2.00
2019-05-13T08:31:04.980Z,2.00
2019-05-13T08:33:35.256Z,2.17
2019-05-13T08:36:05.535Z,2.73
2019-05-13T08:38:35.659Z,1.97
2019-05-13T08:41:09.896Z,2.17
2019-05-13T08:43:37.713Z,1.93
2019-05-13T08:46:07.936Z,2.40
2019-05-13T08:48:38.162Z,2.57
2019-05-13T08:51:08.359Z,2.37
2019-05-13T08:53:38.650Z,2.20
2019-05-13T08:56:08.821Z,2.40
2019-05-13T08:58:41.294Z,2.90
2019-05-13T09:01:12.414Z,2.60
2019-05-13T09:03:42.863Z,2.13
2019-05-13T09:06:13.050Z,1.93
2019-05-13T09:08:43.330Z,1.90
2019-05-13T09:11:13.505Z,2.17
2019-05-13T09:13:43.723Z,1.93
2019-05-13T09:16:14.347Z,2.03
2019-05-13T09:18:44.598Z,2.23
2019-05-13T09:21:14.832Z,2.30
2019-05-13T09:23:45.014Z,2.60
2019-05-13T09:26:15.195Z,2.50
2019-05-13T09:28:46.460Z,1.90
2019-05-13T09:31:16.651Z,2.00
2019-05-13T09:33:46.890Z,2.53
2019-05-13T09:36:17.099Z,2.03
2019-05-13T09:38:47.338Z,1.93
2019-05-13T09:41:17.567Z,1.77
2019-05-13T09:43:48.097Z,1.90
2019-05-13T09:46:18.593Z,2.10
2019-05-13T09:48:48.801Z,1.90
2019-05-13T09:51:21.608Z,2.00
2019-05-13T09:53:52.096Z,2.07
2019-05-13T09:56:22.530Z,2.10
2019-05-13T09:58:52.780Z,1.47
2019-05-13T10:01:23.041Z,2.57
2019-05-13T10:06:25.213Z,1.90
2019-05-13T10:08:55.338Z,1.50
2019-05-13T10:11:25.598Z,1.80
2019-05-13T10:13:55.852Z,1.57
2019-05-13T10:16:26.010Z,1.80
2019-05-13T10:18:56.276Z,1.40
2019-05-13T10:21:26.465Z,1.63
2019-05-13T10:23:58.806Z,1.50
2019-05-13T10:26:28.864Z,1.90
2019-05-13T10:28:59.121Z,1.63
2019-05-13T10:31:31.461Z,1.90
2019-05-13T10:34:02.638Z,2.07
2019-05-13T10:36:33.180Z,2.20
2019-05-13T10:39:03.605Z,1.93
2019-05-13T10:41:34.142Z,1.90
2019-05-13T10:44:04.966Z,1.90
2019-05-13T10:46:35.587Z,1.97
2019-05-13T10:49:05.797Z,2.00
2019-05-13T10:51:36.464Z,2.10
2019-05-13T10:54:08.132Z,1.70
2019-05-13T10:56:38.398Z,1.43
2019-05-13T10:59:08.691Z,1.73
2019-05-13T11:01:38.830Z,1.50
2019-05-13T11:04:13.340Z,1.60
2019-05-13T11:06:41.614Z,1.30
2019-05-13T11:09:13.230Z,1.60
2019-05-13T11:11:43.895Z,1.67
2019-05-13T11:14:15.707Z,1.27
2019-05-13T11:16:46.789Z,1.67
2019-05-13T11:19:17.471Z,2.23
2019-05-13T11:21:50.851Z,2.17
2019-05-13T11:24:22.127Z,1.93
2019-05-13T11:26:53.177Z,1.63
2019-05-13T11:29:24.187Z,1.30
2019-05-13T11:31:55.473Z,1.27
2019-05-13T11:34:26.184Z,1.47
2019-05-13T11:36:56.741Z,1.73
2019-05-13T11:39:27.082Z,2.20
2019-05-13T11:41:57.215Z,2.17
2019-05-13T11:44:27.631Z,1.93
2019-05-13T11:46:57.864Z,2.20
2019-05-13T11:49:28.351Z,1.57
2019-05-13T11:51:58.536Z,1.90
2019-05-13T11:54:28.823Z,1.50
2019-05-13T11:57:02.546Z,1.53
2019-05-13T11:59:33.036Z,2.07
2019-05-13T12:02:04.414Z,1.83
2019-05-13T12:04:35.287Z,1.80
2019-05-13T12:07:06.199Z,1.73
2019-05-13T12:09:36.450Z,2.40
2019-05-13T12:12:06.688Z,1.80
2019-05-13T12:14:48.432Z,2.30
2019-05-13T12:17:08.854Z,2.00
2019-05-13T12:19:41.277Z,2.33
2019-05-13T12:22:13.170Z,2.10
2019-05-13T12:24:43.008Z,1.80
2019-05-13T12:27:13.272Z,1.80
2019-05-13T12:29:43.981Z,2.20
2019-05-13T12:32:14.162Z,2.07
2019-05-13T12:34:45.798Z,2.60
2019-05-13T12:37:17.281Z,2.20
2019-05-13T12:39:47.465Z,2.07
2019-05-13T12:42:18.026Z,1.47
2019-05-13T12:45:01.933Z,2.77
2019-05-13T12:47:22.723Z,1.87
2019-05-13T12:49:53.222Z,2.97
2019-05-13T12:52:23.390Z,2.03
2019-05-13T12:54:53.591Z,1.73
2019-05-13T12:57:23.830Z,2.17
2019-05-13T12:59:54.404Z,2.10
2019-05-13T13:02:24.667Z,2.17
2019-05-13T13:05:10.514Z,2.00
2019-05-13T13:07:26.840Z,2.20
2019-05-13T13:09:57.500Z,2.10
2019-05-13T13:12:34.794Z,2.17
2019-05-13T13:15:02.803Z,2.37
2019-05-13T13:17:31.684Z,2.13
2019-05-13T13:20:08.951Z,2.07
2019-05-13T13:22:34.489Z,2.57
2019-05-13T13:25:06.014Z,2.47
2019-05-13T13:28:03.139Z,2.70
2019-05-13T13:30:10.234Z,2.00
2019-05-13T13:32:45.371Z,2.57
2019-05-13T13:35:14.742Z,2.20
2019-05-13T13:37:46.347Z,2.30
2019-05-13T13:40:28.165Z,2.20
2019-05-13T13:42:52.974Z,2.20
2019-05-13T13:45:22.769Z,2.00
2019-05-13T13:48:02.259Z,2.20
2019-05-13T13:50:25.197Z,2.30
2019-05-13T13:52:55.760Z,2.20
2019-05-13T13:55:26.357Z,2.17
2019-05-13T13:57:57.010Z,1.93
2019-05-13T14:00:41.081Z,2.20
2019-05-13T14:03:06.061Z,1.90
2019-05-13T14:05:36.156Z,2.23
2019-05-13T14:06:32.810Z,1.70
2019-05-13T14:08:04.854Z,2.10
2019-05-13T14:10:35.126Z,2.00
2019-05-13T14:13:05.297Z,1.98
2019-05-13T14:15:35.690Z,2.17
2019-05-13T14:18:05.892Z,2.30
2019-05-13T14:20:36.500Z,2.12
2019-05-13T14:23:06.765Z,2.22
2019-05-13T14:25:37.274Z,2.30
2019-05-13T14:28:07.360Z,2.37
2019-05-13T14:30:38.082Z,2.10
2019-05-13T14:33:08.262Z,2.55
2019-05-13T14:35:41.447Z,2.35
2019-05-13T14:38:11.910Z,2.30
2019-05-13T14:40:42.418Z,2.15
2019-05-13T14:43:13.146Z,2.42
2019-05-13T14:45:43.411Z,2.45
2019-05-13T14:48:13.897Z,3.05
2019-05-13T14:50:44.570Z,2.85
2019-05-13T14:53:15.111Z,2.33
2019-05-13T14:55:46.010Z,2.47
2019-05-13T14:58:16.344Z,3.10
2019-05-13T15:00:46.620Z,2.72
2019-05-13T15:03:17.207Z,5.62
2019-05-13T15:05:49.473Z,2.30
2019-05-13T15:08:23.192Z,2.62
2019-05-13T15:10:53.360Z,3.10
2019-05-13T15:13:23.514Z,2.90
2019-05-13T15:15:53.743Z,3.00
2019-05-13T15:18:25.088Z,2.55
2019-05-13T15:20:55.662Z,2.70
2019-05-13T15:23:26.218Z,3.08
2019-05-13T15:25:56.483Z,3.02
2019-05-13T15:28:26.658Z,2.83
2019-05-13T15:30:56.885Z,2.90
2019-05-13T15:33:27.168Z,2.87
2019-05-13T15:35:57.664Z,2.95
2019-05-13T15:38:27.899Z,2.67
2019-05-13T15:40:58.091Z,2.83
2019-05-13T15:43:28.314Z,3.30
2019-05-13T15:45:58.581Z,2.87
2019-05-13T15:48:30.882Z,3.30
2019-05-13T15:51:02.197Z,3.27
2019-05-13T15:53:33.667Z,3.37
2019-05-13T15:56:03.998Z,2.58
2019-05-13T15:58:41.082Z,3.25
2019-05-13T16:01:12.444Z,4.15
2019-05-13T16:03:42.954Z,3.35
2019-05-13T16:06:13.241Z,2.70
2019-05-13T16:08:43.509Z,2.62
2019-05-13T16:11:15.021Z,3.05
2019-05-13T16:13:45.439Z,2.95
2019-05-13T16:16:15.883Z,2.90
2019-05-13T16:18:46.453Z,3.10
2019-05-13T16:21:16.706Z,2.95
2019-05-13T16:23:46.965Z,2.45
2019-05-13T16:26:17.596Z,3.00
2019-05-13T16:28:47.802Z,2.90
2019-05-13T16:31:18.104Z,2.98
2019-05-13T16:33:48.639Z,2.70
2019-05-13T16:36:21.952Z,2.90
2019-05-13T16:38:50.852Z,2.83
2019-05-13T16:41:22.875Z,2.92
2019-05-13T16:43:53.048Z,3.27
2019-05-13T16:46:23.233Z,2.42
2019-05-13T16:48:53.755Z,2.67
2019-05-13T16:51:24.685Z,3.00
2019-05-13T16:53:54.864Z,2.40
2019-05-13T16:56:29.819Z,3.05
2019-05-13T16:58:57.006Z,2.60
2019-05-13T17:01:27.557Z,2.50
2019-05-13T17:03:57.784Z,2.40
2019-05-13T17:06:27.959Z,2.27
2019-05-13T17:08:58.828Z,2.08
2019-05-13T17:11:29.085Z,2.08
2019-05-13T17:13:59.345Z,2.45
2019-05-13T17:16:31.645Z,2.98
2019-05-13T17:19:01.556Z,2.42
2019-05-13T17:21:31.854Z,2.07
2019-05-13T17:24:02.442Z,2.60
2019-05-13T17:26:32.863Z,2.33
2019-05-13T17:29:03.271Z,2.77
2019-05-13T17:31:34.569Z,2.27
2019-05-13T17:34:06.368Z,2.50
2019-05-13T17:36:36.569Z,2.60
2019-05-13T17:39:08.398Z,2.00
2019-05-13T17:41:38.613Z,2.10
2019-05-13T17:44:11.438Z,2.70
2019-05-13T17:46:41.927Z,2.05
2019-05-13T17:49:13.647Z,1.80
2019-05-13T17:51:43.841Z,1.92
2019-05-13T17:54:14.370Z,2.30
2019-05-13T17:56:44.924Z,2.70
2019-05-13T17:59:16.261Z,2.75
2019-05-13T18:01:46.677Z,2.20
2019-05-13T18:04:16.860Z,2.20
2019-05-13T18:06:47.175Z,2.27
2019-05-13T18:09:17.464Z,2.33
2019-05-13T18:11:48.069Z,2.03
2019-05-13T18:14:18.265Z,2.17
2019-05-13T18:16:48.858Z,2.13
2019-05-13T18:19:19.415Z,2.10
2019-05-13T18:21:51.588Z,2.27
2019-05-13T18:24:21.905Z,2.10
2019-05-13T18:26:52.537Z,1.90
2019-05-13T18:29:23.045Z,1.60
2019-05-13T18:31:53.964Z,1.90
2019-05-13T18:34:24.215Z,1.97
2019-05-13T18:36:57.638Z,1.83
2019-05-13T18:39:26.410Z,1.90
2019-05-13T18:41:56.640Z,2.00
2019-05-13T18:44:26.914Z,1.83
2019-05-13T18:46:57.089Z,2.00
2019-05-13T18:49:27.611Z,1.70
2019-05-13T18:51:57.788Z,1.93
2019-05-13T18:54:27.988Z,1.40
2019-05-13T18:56:58.307Z,1.80
2019-05-13T18:59:28.519Z,1.60
2019-05-13T19:02:01.049Z,1.50
2019-05-13T19:04:31.401Z,1.87
2019-05-13T19:07:02.635Z,1.53
2019-05-13T19:09:32.838Z,1.60
2019-05-13T19:12:04.416Z,1.70
2019-05-13T19:14:34.651Z,1.90
2019-05-13T19:17:05.302Z,1.60
2019-05-13T19:19:35.550Z,1.60
2019-05-13T19:22:05.764Z,1.53
2019-05-13T19:24:36.161Z,2.17
2019-05-13T19:27:06.369Z,1.20
2019-05-13T19:29:36.545Z,1.43
2019-05-13T19:32:06.899Z,2.50
2019-05-13T19:34:37.106Z,2.13
2019-05-13T19:37:07.297Z,1.80
2019-05-13T19:39:37.564Z,1.70
2019-05-13T19:42:07.685Z,1.50
2019-05-13T19:44:38.254Z,1.80
2019-05-13T19:47:08.506Z,1.80
2019-05-13T19:49:41.979Z,1.90
2019-05-13T19:52:12.022Z,2.40
2019-05-13T19:54:42.238Z,2.07
2019-05-13T19:57:12.458Z,2.00
2019-05-13T19:59:43.157Z,1.90
2019-05-13T20:02:13.493Z,1.73
2019-05-13T20:04:43.685Z,1.67
2019-05-13T20:07:13.894Z,1.90
2019-05-13T20:09:45.579Z,2.40
2019-05-13T20:12:16.027Z,2.57
2019-05-13T20:14:47.465Z,2.23
2019-05-13T20:17:17.724Z,2.23
2019-05-13T20:19:51.440Z,1.83
2019-05-13T20:22:19.858Z,1.90
2019-05-13T20:24:54.144Z,1.50
2019-05-13T20:27:24.696Z,2.07
2019-05-13T20:29:54.860Z,2.40
2019-05-13T20:32:25.855Z,1.90
2019-05-13T20:34:57.106Z,1.67
2019-05-13T20:37:28.060Z,1.93
2019-05-13T20:39:58.251Z,2.17
2019-05-13T20:42:28.433Z,1.87
2019-05-13T20:44:58.627Z,2.13
2019-05-13T20:47:28.845Z,2.07
2019-05-13T20:50:02.385Z,2.07
2019-05-13T20:52:31.601Z,1.97
2019-05-13T20:55:02.190Z,2.27
2019-05-13T20:57:32.482Z,2.17
2019-05-13T21:00:03.233Z,2.17
2019-05-13T21:02:35.056Z,2.47
2019-05-13T21:05:06.017Z,2.50
2019-05-13T21:07:36.337Z,2.37
2019-05-13T21:10:07.095Z,2.37
2019-05-13T21:12:37.734Z,2.23
2019-05-13T21:15:08.254Z,2.50
2019-05-13T21:17:38.481Z,2.53
2019-05-13T21:20:21.457Z,2.10
2019-05-13T21:22:42.364Z,2.60
2019-05-13T21:25:13.160Z,2.50
2019-05-13T21:27:43.429Z,2.33
2019-05-13T21:30:14.012Z,2.07
2019-05-13T21:32:44.714Z,2.53
2019-05-13T21:35:14.971Z,2.70
2019-05-13T21:37:45.453Z,2.57
2019-05-13T21:40:17.652Z,2.20
2019-05-13T21:42:48.265Z,1.90
2019-05-13T21:45:18.454Z,2.10
2019-05-13T21:47:48.678Z,2.07
2019-05-13T21:50:32.666Z,2.30
2019-05-13T21:52:51.582Z,2.10
2019-05-13T21:55:21.824Z,1.80
2019-05-13T21:57:53.021Z,1.97
2019-05-13T22:00:27.398Z,1.90
2019-05-13T22:02:59.231Z,2.33
2019-05-13T22:05:31.308Z,1.80
2019-05-13T22:08:01.785Z,1.60
2019-05-13T22:10:32.100Z,1.70
2019-05-13T22:13:02.607Z,1.90
2019-05-13T22:15:32.776Z,2.10
2019-05-13T22:18:04.117Z,1.90
2019-05-13T22:20:49.438Z,1.60
2019-05-13T22:23:06.376Z,2.10
2019-05-13T22:25:36.667Z,2.10
2019-05-13T22:28:07.220Z,1.70
2019-05-13T22:30:38.045Z,2.20
2019-05-13T22:33:08.306Z,2.00
2019-05-13T22:35:41.400Z,1.83
2019-05-13T22:38:12.239Z,1.93
2019-05-13T22:40:42.564Z,1.97
2019-05-13T22:43:12.882Z,1.90
2019-05-13T22:45:43.432Z,2.13
2019-05-13T22:48:15.008Z,1.80
2019-05-13T22:50:45.395Z,2.00
2019-05-13T22:53:15.602Z,1.87
2019-05-13T22:55:45.780Z,2.27
2019-05-13T22:58:16.051Z,2.00
2019-05-13T23:00:46.860Z,2.20
2019-05-13T23:03:18.748Z,1.73
2019-05-13T23:05:48.938Z,2.13
2019-05-13T23:08:21.691Z,2.23
2019-05-13T23:10:53.128Z,2.03
2019-05-13T23:13:23.334Z,2.10
2019-05-13T23:15:53.505Z,2.27
2019-05-13T23:18:23.665Z,2.00
2019-05-13T23:20:53.895Z,2.27
2019-05-13T23:23:24.017Z,2.20
2019-05-13T23:25:56.682Z,2.20
2019-05-13T23:28:26.076Z,2.00
2019-05-13T23:30:57.315Z,2.40
2019-05-13T23:33:28.345Z,1.97
2019-05-13T23:35:58.565Z,1.60
2019-05-13T23:38:29.159Z,2.00
2019-05-13T23:40:59.403Z,1.93
2019-05-13T23:43:31.036Z,1.83
2019-05-13T23:46:01.418Z,2.20
2019-05-13T23:48:32.276Z,2.03
2019-05-13T23:51:02.619Z,2.10
2019-05-13T23:53:33.947Z,1.93
2019-05-13T23:56:04.509Z,2.00
2019-05-13T23:58:34.727Z,2.27
